Pagrindinis puslapis
METAR-TAF:

METAR-TAF

Oro uostai :

Nakhon Ratchasima, Tailandas

platuma: 14-56-58N, ilguma: 102-18-45E, Aukštis: 233 m

Dabartinis oras

Ataskaita buvo paskelbta 10 valandos ir 5 minutes, ne 11:00 UTC
Vėjas 4 kt iš Rytų/Pietryčių, svyruoja nuo Rytų ir Pietų/Pietryčių
Temperatūra 26°C
Drėgmė 89%
Slėgis 1008 hPa
Matomumas: 8000 m
Išsisklaidę debesys ne aukštis 2200 ft
Su prošvaistėmis ne aukštis 10000 ft
lietus

METAR: VTUQ 201100Z 12004KT 080V150 8000 -RA SCT022 BKN100 26/24 Q1008 NOSIG

Laikas: 04:05 (21:05 UTC)

Prognozė

Ataskaita buvo paskelbta 4 valandos ir 5 minutes, ne 17:00 UTC
Prognozė galioja nuo 20 metu 18 UTC su 21 metu 18 UTC
Vėjas 5 kt iš Rytų/Šiaurės Rytų
Matomumas: 9000 m
Išsisklaidę debesys ne aukštis 2500 ft
Su prošvaistėmis ne aukštis 10000 ft
Laikinai
nuo 20 metu 18 UTC su 20 metu 20 UTC
Vėjas 10 kt iš Rytų
Matomumas: 5000 m
Išsisklaidę debesys ne aukštis 2000 ft
Su prošvaistėmis ne aukštis 10000 ft
lietus

TAF: VTUQ 201700Z 2018/2118 06005KT 9000 SCT025 BKN100 TEMPO 2018/2020 09010KT 5000 RA SCT020 BKN100

Orai ataskaitas ir orų prognozės (METAR, TAF).

turimą stotys yra geltonos ir raudonos taškus žemėlapyje.

Perkelti pele per norėdami pamatyti stoties vardą.

Tada spustelėkite, norėdami matyti oro stebėjimo ir prognozės.

Norėdami pakeisti žemėlapį: spustelėkite ant žalios mygtukų su juodo kryžiaus žemyn,; žalią mygtuką su brūkšneliu, jei norite nutolinti; arba žalių rodyklių gretimoms žemėlapius.


METAR-TAF: